createdAt,value
2019-01-04T00:02:23.137Z,9.50
2019-01-04T00:04:49.339Z,8.60
2019-01-04T00:07:15.558Z,8.97
2019-01-04T00:09:41.762Z,9.33
2019-01-04T00:12:08.254Z,9.30
2019-01-04T00:14:34.795Z,8.87
2019-01-04T00:17:01.039Z,9.83
2019-01-04T00:19:27.263Z,8.40
2019-01-04T00:21:53.651Z,9.00
2019-01-04T00:24:19.877Z,8.73
2019-01-04T00:26:46.081Z,8.67
2019-01-04T00:29:12.303Z,8.83
2019-01-04T00:31:38.501Z,8.20
2019-01-04T00:34:04.723Z,8.80
2019-01-04T00:36:30.930Z,9.23
2019-01-04T00:38:57.982Z,9.53
2019-01-04T00:41:24.186Z,8.83
2019-01-04T00:43:50.439Z,8.93
2019-01-04T00:46:16.738Z,9.13
2019-01-04T00:48:42.963Z,8.83
2019-01-04T00:51:09.182Z,9.07
2019-01-04T00:53:35.437Z,9.23
2019-01-04T00:56:11.756Z,9.40
2019-01-04T00:59:08.031Z,9.80
2019-01-04T01:02:03.452Z,9.70
2019-01-04T01:04:45.778Z,9.13
2019-01-04T01:07:38.179Z,9.03
2019-01-04T01:10:30.406Z,9.20
2019-01-04T01:13:06.238Z,9.67
2019-01-04T01:15:52.642Z,9.50
2019-01-04T01:18:34.677Z,9.37
2019-01-04T01:21:25.615Z,9.47
2019-01-04T01:23:58.650Z,10.17
2019-01-04T01:26:31.685Z,9.10
2019-01-04T01:29:35.425Z,10.07
2019-01-04T01:32:39.075Z,9.07
2019-01-04T01:35:35.035Z,9.33
2019-01-04T01:38:21.890Z,9.90
2019-01-04T01:41:07.107Z,9.83
2019-01-04T01:43:52.411Z,9.90
2019-01-04T01:46:31.486Z,9.57
2019-01-04T01:49:26.920Z,10.67
2019-01-04T01:52:02.513Z,11.80
2019-01-04T01:54:28.724Z,12.93
2019-01-04T01:56:54.938Z,12.17
2019-01-04T01:59:21.152Z,12.53
2019-01-04T02:01:47.355Z,11.80
2019-01-04T02:04:13.574Z,12.73
2019-01-04T02:06:39.779Z,12.27
2019-01-04T02:09:07.667Z,13.00
2019-01-04T02:11:34.295Z,13.20
2019-01-04T02:14:00.506Z,13.87
2019-01-04T02:16:26.731Z,13.13
2019-01-04T02:18:53.002Z,14.23
2019-01-04T02:21:19.291Z,14.00
2019-01-04T02:23:45.557Z,16.40
2019-01-04T02:26:11.966Z,17.17
2019-01-04T02:28:38.186Z,19.27
2019-01-04T02:31:04.386Z,18.93
2019-01-04T02:33:30.612Z,20.90
2019-01-04T02:35:56.810Z,21.17
2019-01-04T02:38:23.039Z,22.90
2019-01-04T02:40:49.238Z,24.73
2019-01-04T02:43:15.458Z,23.07
2019-01-04T02:45:41.671Z,22.50
2019-01-04T02:48:27.774Z,23.83
2019-01-04T02:50:53.988Z,23.30
2019-01-04T02:53:26.234Z,22.33
2019-01-04T02:55:52.467Z,22.23
2019-01-04T02:58:18.771Z,22.20
2019-01-04T03:00:44.993Z,22.10
2019-01-04T03:03:11.191Z,21.83
2019-01-04T03:05:37.643Z,20.87
2019-01-04T03:08:03.843Z,21.57
2019-01-04T03:10:30.062Z,21.73
2019-01-04T03:12:56.292Z,20.83
2019-01-04T03:15:22.523Z,19.60
2019-01-04T03:17:48.718Z,20.37
2019-01-04T03:20:14.944Z,19.57
2019-01-04T03:22:41.142Z,19.13
2019-01-04T03:25:07.378Z,20.50
2019-01-04T03:27:33.674Z,18.77
2019-01-04T03:29:59.889Z,19.17
2019-01-04T03:32:26.116Z,18.00
2019-01-04T03:34:52.322Z,17.53
2019-01-04T03:37:18.541Z,17.60
2019-01-04T03:39:44.743Z,18.40
2019-01-04T03:42:10.969Z,17.30
2019-01-04T03:44:42.334Z,17.43
2019-01-04T03:47:08.562Z,18.03
2019-01-04T03:49:34.772Z,19.53
2019-01-04T03:52:00.995Z,18.57
2019-01-04T03:54:27.310Z,19.40
2019-01-04T03:56:53.539Z,19.03
2019-01-04T03:59:19.734Z,20.13
2019-01-04T04:01:45.978Z,21.03
2019-01-04T04:04:12.184Z,19.87
2019-01-04T04:06:38.402Z,20.37
2019-01-04T04:09:05.198Z,18.77
2019-01-04T04:11:31.402Z,19.20
2019-01-04T04:13:57.661Z,19.97
2019-01-04T04:16:39.230Z,18.60
2019-01-04T04:19:05.450Z,18.13
2019-01-04T04:21:31.662Z,17.57
2019-01-04T04:23:58.032Z,17.73
2019-01-04T04:26:24.599Z,17.57
2019-01-04T04:28:50.832Z,18.43
2019-01-04T04:31:19.726Z,17.93
2019-01-04T04:33:45.955Z,16.90
2019-01-04T04:36:12.166Z,15.90
2019-01-04T04:38:38.479Z,15.70
2019-01-04T04:41:04.683Z,16.20
2019-01-04T04:43:30.909Z,16.87
2019-01-04T04:45:57.106Z,15.47
2019-01-04T04:48:23.326Z,15.10
2019-01-04T04:50:49.851Z,14.13
2019-01-04T04:53:16.056Z,14.23
2019-01-04T04:55:42.505Z,13.33
2019-01-04T04:58:08.698Z,14.07
2019-01-04T05:00:35.014Z,13.53
2019-01-04T05:03:01.223Z,14.17
2019-01-04T05:05:27.434Z,14.83
2019-01-04T05:07:53.640Z,14.90
2019-01-04T05:10:19.879Z,15.00
2019-01-04T05:12:46.175Z,14.70
2019-01-04T05:15:12.406Z,14.43
2019-01-04T05:17:38.619Z,14.93
2019-01-04T05:20:04.829Z,14.90
2019-01-04T05:22:31.035Z,13.60
2019-01-04T05:24:57.259Z,14.30
2019-01-04T05:27:23.463Z,14.37
2019-01-04T05:29:49.659Z,15.60
2019-01-04T05:32:15.946Z,14.93
2019-01-04T05:34:42.160Z,16.07
2019-01-04T05:37:08.383Z,15.90
2019-01-04T05:39:34.590Z,17.60
2019-01-04T05:42:00.807Z,17.57
2019-01-04T05:44:27.074Z,19.27
2019-01-04T05:46:53.303Z,18.83
2019-01-04T05:49:19.517Z,20.10
2019-01-04T05:51:48.641Z,20.53
2019-01-04T05:54:14.842Z,20.07
2019-01-04T05:56:41.161Z,21.90
2019-01-04T05:59:07.370Z,21.03
2019-01-04T06:01:33.744Z,22.17
2019-01-04T06:04:00.038Z,22.20
2019-01-04T06:06:26.259Z,21.67
2019-01-04T06:08:52.458Z,21.87
2019-01-04T06:11:18.701Z,21.67
2019-01-04T06:13:44.906Z,22.33
2019-01-04T06:16:11.126Z,22.50
2019-01-04T06:18:37.330Z,23.63
2019-01-04T06:21:03.679Z,24.13
2019-01-04T06:23:34.747Z,24.53
2019-01-04T06:26:01.335Z,24.90
2019-01-04T06:28:27.540Z,26.97
2019-01-04T06:30:53.734Z,27.57
2019-01-04T06:33:20.187Z,28.13
2019-01-04T06:35:46.390Z,29.43
2019-01-04T06:38:12.611Z,49.20
2019-01-04T06:40:38.801Z,31.80
2019-01-04T06:43:05.171Z,32.27
2019-01-04T06:45:31.675Z,31.83
2019-01-04T06:47:57.894Z,30.87
2019-01-04T06:50:24.107Z,31.63
2019-01-04T06:52:50.330Z,32.57
2019-01-04T06:55:20.343Z,31.27
2019-01-04T06:57:46.602Z,30.43
2019-01-04T07:00:13.316Z,31.93
2019-01-04T07:02:39.576Z,29.87
2019-01-04T07:05:06.876Z,30.37
2019-01-04T07:07:33.133Z,30.17
2019-01-04T07:09:59.374Z,30.80
2019-01-04T07:12:25.579Z,31.00
2019-01-04T07:14:51.810Z,29.93
2019-01-04T07:17:18.014Z,29.63
2019-01-04T07:19:49.589Z,28.83
2019-01-04T07:22:15.795Z,29.17
2019-01-04T07:24:42.013Z,28.80
2019-01-04T07:27:08.232Z,28.07
2019-01-04T07:29:34.452Z,28.87
2019-01-04T07:32:00.650Z,28.53
2019-01-04T07:34:26.974Z,27.97
2019-01-04T07:36:53.176Z,28.13
2019-01-04T07:39:19.390Z,28.77
2019-01-04T07:41:45.619Z,29.37
2019-01-04T07:44:11.835Z,98.63
2019-01-04T07:46:38.073Z,47.47
2019-01-04T07:49:04.378Z,32.43
2019-01-04T07:51:30.583Z,30.33
2019-01-04T07:53:56.791Z,29.53
2019-01-04T07:56:23.015Z,29.37
2019-01-04T07:58:49.276Z,29.23
2019-01-04T08:01:15.489Z,29.07
2019-01-04T08:03:41.798Z,29.17
2019-01-04T08:06:08.250Z,29.60
2019-01-04T08:08:34.475Z,30.33
2019-01-04T08:11:00.702Z,39.27
2019-01-04T08:13:26.902Z,30.67
2019-01-04T08:15:53.123Z,29.77
2019-01-04T08:18:19.334Z,28.77
2019-01-04T08:20:45.549Z,28.43
2019-01-04T08:23:11.755Z,28.10
2019-01-04T08:25:38.070Z,27.77
2019-01-04T08:28:04.266Z,28.23
2019-01-04T08:30:30.503Z,55.93
2019-01-04T08:32:56.706Z,36.17
2019-01-04T08:35:22.902Z,29.13
2019-01-04T08:37:49.122Z,25.97
2019-01-04T08:40:15.326Z,26.23
2019-01-04T08:42:41.554Z,26.07
2019-01-04T08:45:16.670Z,26.10
2019-01-04T08:47:42.912Z,24.20
2019-01-04T08:50:09.529Z,25.27
2019-01-04T08:52:35.742Z,23.70
2019-01-04T08:55:03.360Z,22.50
2019-01-04T08:57:29.582Z,22.10
2019-01-04T08:59:58.319Z,21.23
2019-01-04T09:02:24.535Z,20.60
2019-01-04T09:04:50.871Z,20.40
2019-01-04T09:07:17.113Z,20.70
2019-01-04T09:09:43.328Z,19.97
2019-01-04T09:12:09.542Z,19.40
2019-01-04T09:14:35.855Z,19.80
2019-01-04T09:17:02.098Z,21.00
2019-01-04T09:19:28.302Z,19.63
2019-01-04T09:21:54.519Z,20.63
2019-01-04T09:24:20.739Z,19.63
2019-01-04T09:26:47.609Z,19.40
2019-01-04T09:29:14.062Z,19.27
2019-01-04T09:31:40.271Z,18.93
2019-01-04T09:34:06.491Z,18.97
2019-01-04T09:36:32.686Z,19.50
2019-01-04T09:39:03.259Z,18.83
2019-01-04T09:41:32.180Z,29.03
2019-01-04T09:43:59.296Z,21.90
2019-01-04T09:46:25.503Z,17.73
2019-01-04T09:48:51.726Z,17.70
2019-01-04T09:51:17.922Z,19.20
2019-01-04T09:53:44.139Z,18.90
2019-01-04T09:56:10.447Z,19.67
2019-01-04T09:58:36.766Z,20.40
2019-01-04T10:01:02.987Z,21.30
2019-01-04T10:03:32.151Z,20.40
2019-01-04T10:05:58.371Z,21.13
2019-01-04T10:08:24.700Z,20.60
2019-01-04T10:10:50.962Z,20.90
2019-01-04T10:13:17.490Z,21.90
2019-01-04T10:15:43.714Z,19.57
2019-01-04T10:18:09.923Z,18.90
2019-01-04T10:20:36.148Z,17.20
2019-01-04T10:23:02.351Z,17.17
2019-01-04T10:25:28.566Z,16.20
2019-01-04T10:27:54.776Z,16.90
2019-01-04T10:30:24.502Z,16.77
2019-01-04T10:32:50.801Z,15.90
2019-01-04T10:35:17.027Z,15.40
2019-01-04T10:37:43.222Z,15.27
2019-01-04T10:40:11.139Z,15.43
2019-01-04T10:42:37.554Z,15.07
2019-01-04T10:45:05.087Z,15.50
2019-01-04T10:47:31.350Z,14.80
2019-01-04T10:49:57.574Z,16.83
2019-01-04T10:52:24.142Z,17.07
2019-01-04T10:54:50.488Z,17.27
2019-01-04T10:57:16.830Z,17.20
2019-01-04T10:59:43.205Z,17.37
2019-01-04T11:02:09.427Z,17.33
2019-01-04T11:04:35.646Z,18.10
2019-01-04T11:07:01.881Z,18.20
2019-01-04T11:09:28.325Z,18.40
2019-01-04T11:11:54.671Z,18.73
2019-01-04T11:14:21.303Z,19.60
2019-01-04T11:16:47.528Z,19.50
2019-01-04T11:19:13.734Z,18.93
2019-01-04T11:21:39.943Z,19.00
2019-01-04T11:24:19.255Z,19.47
2019-01-04T11:26:48.670Z,18.47
2019-01-04T11:29:21.724Z,19.80
2019-01-04T11:32:07.142Z,18.50
2019-01-04T11:34:46.654Z,18.40
2019-01-04T11:37:25.782Z,17.03
2019-01-04T11:40:15.394Z,17.73
2019-01-04T11:43:06.658Z,17.33
2019-01-04T11:45:51.858Z,18.33
2019-01-04T11:48:27.922Z,17.90
2019-01-04T11:51:03.922Z,17.43
2019-01-04T11:53:38.794Z,18.90
2019-01-04T11:56:04.994Z,19.53
2019-01-04T11:58:31.219Z,19.17
2019-01-04T12:00:57.417Z,19.13
2019-01-04T12:03:23.727Z,19.67
2019-01-04T12:05:49.967Z,20.13
2019-01-04T12:08:16.168Z,19.20
2019-01-04T12:10:42.382Z,19.07
2019-01-04T12:13:08.586Z,19.63
2019-01-04T12:15:34.803Z,18.40
2019-01-04T12:18:01.004Z,18.47
2019-01-04T12:20:33.014Z,18.80
2019-01-04T12:22:59.214Z,18.37
2019-01-04T12:25:25.552Z,16.63
2019-01-04T12:27:51.750Z,18.10
2019-01-04T12:30:18.012Z,18.13
2019-01-04T12:32:44.211Z,18.57
2019-01-04T12:35:22.539Z,19.00
2019-01-04T12:37:48.755Z,18.77
2019-01-04T12:40:14.974Z,20.53
2019-01-04T12:42:41.183Z,21.73
2019-01-04T12:45:07.507Z,21.23
2019-01-04T12:47:34.010Z,22.43
2019-01-04T12:50:00.239Z,24.00
2019-01-04T12:52:26.464Z,23.83
2019-01-04T12:54:52.696Z,24.37
2019-01-04T12:57:18.890Z,25.73
2019-01-04T12:59:45.115Z,25.33
2019-01-04T13:02:11.365Z,26.77
2019-01-04T13:04:37.565Z,27.20
2019-01-04T13:07:03.797Z,27.60
2019-01-04T13:09:30.031Z,28.77
2019-01-04T13:11:56.239Z,27.33
2019-01-04T13:14:22.563Z,28.00
2019-01-04T13:16:48.803Z,27.43
2019-01-04T13:19:15.090Z,27.50
2019-01-04T13:21:41.311Z,27.43
2019-01-04T13:24:07.523Z,28.07
2019-01-04T13:26:33.755Z,27.27
2019-01-04T13:29:03.134Z,28.17
2019-01-04T13:31:29.375Z,31.13
2019-01-04T13:33:55.586Z,29.07
2019-01-04T13:36:21.954Z,27.10
2019-01-04T13:38:48.162Z,28.23
2019-01-04T13:41:14.610Z,27.70
2019-01-04T13:43:41.101Z,27.87
2019-01-04T13:46:07.323Z,28.73
2019-01-04T13:48:33.866Z,28.40
2019-01-04T13:51:00.086Z,28.37
2019-01-04T13:53:26.286Z,28.67
2019-01-04T13:55:52.527Z,29.37
2019-01-04T13:58:18.727Z,29.70
2019-01-04T14:00:44.967Z,30.47
2019-01-04T14:03:11.176Z,28.57
2019-01-04T14:05:37.390Z,28.37
2019-01-04T14:08:03.603Z,29.27
2019-01-04T14:10:29.823Z,28.60
2019-01-04T14:12:56.443Z,29.53
2019-01-04T14:15:22.716Z,29.83
2019-01-04T14:17:49.251Z,29.40
2019-01-04T14:20:15.493Z,28.23
2019-01-04T14:22:41.799Z,28.20
2019-01-04T14:25:08.066Z,27.50
2019-01-04T14:27:34.282Z,28.43
2019-01-04T14:30:00.490Z,29.53
2019-01-04T14:32:26.706Z,30.27
2019-01-04T14:34:53.089Z,30.30
2019-01-04T14:37:19.311Z,30.20
2019-01-04T14:39:45.514Z,31.20
2019-01-04T14:42:11.782Z,29.53
2019-01-04T14:44:37.995Z,29.60
2019-01-04T14:47:04.202Z,30.23
2019-01-04T14:49:30.443Z,30.30
2019-01-04T14:51:56.771Z,29.70
2019-01-04T14:54:22.994Z,29.17
2019-01-04T14:56:49.193Z,30.27
2019-01-04T14:59:15.422Z,29.70
2019-01-04T15:01:41.633Z,30.87
2019-01-04T15:04:12.941Z,31.47
2019-01-04T15:06:39.218Z,32.53
2019-01-04T15:09:05.850Z,32.93
2019-01-04T15:11:32.046Z,33.33
2019-01-04T15:13:58.266Z,32.80
2019-01-04T15:16:24.465Z,34.03
2019-01-04T15:18:50.692Z,33.73
2019-01-04T15:21:16.898Z,34.07
2019-01-04T15:23:43.375Z,35.10
2019-01-04T15:26:09.570Z,34.47
2019-01-04T15:28:35.799Z,34.67
2019-01-04T15:31:02.010Z,34.70
2019-01-04T15:33:48.095Z,35.63
2019-01-04T15:36:15.166Z,36.57
2019-01-04T15:38:41.382Z,36.73
2019-01-04T15:41:07.587Z,39.33
2019-01-04T15:43:33.791Z,38.87
2019-01-04T15:46:00.186Z,39.97
2019-01-04T15:48:26.456Z,40.37
2019-01-04T15:50:52.784Z,41.90
2019-01-04T15:53:19.085Z,42.77
2019-01-04T15:55:45.318Z,41.43
2019-01-04T15:58:11.518Z,40.97
2019-01-04T16:00:37.739Z,42.53
2019-01-04T16:03:03.947Z,40.57
2019-01-04T16:05:30.174Z,41.17
2019-01-04T16:07:56.449Z,40.50
2019-01-04T16:10:22.749Z,41.73
2019-01-04T16:12:48.986Z,41.17
2019-01-04T16:15:15.308Z,41.17
2019-01-04T16:17:41.670Z,46.10
2019-01-04T16:20:09.692Z,44.27
2019-01-04T16:22:35.997Z,41.67
2019-01-04T16:25:02.626Z,41.13
2019-01-04T16:27:30.070Z,42.37
2019-01-04T16:29:57.314Z,42.70
2019-01-04T16:32:23.567Z,42.10
2019-01-04T16:34:49.802Z,42.60
2019-01-04T16:37:16.026Z,41.43
2019-01-04T16:39:42.352Z,39.87
2019-01-04T16:42:08.554Z,38.93
2019-01-04T16:44:34.790Z,37.70
2019-01-04T16:47:00.995Z,36.63
2019-01-04T16:49:27.424Z,35.93
2019-01-04T16:51:53.943Z,36.70
2019-01-04T16:54:20.173Z,36.80
2019-01-04T16:56:46.372Z,37.33
2019-01-04T16:59:12.654Z,38.30
2019-01-04T17:01:38.850Z,37.27
2019-01-04T17:04:05.180Z,38.77
2019-01-04T17:06:31.378Z,38.37
2019-01-04T17:08:57.599Z,36.97
2019-01-04T17:11:23.797Z,36.87
2019-01-04T17:13:50.023Z,35.20
2019-01-04T17:16:16.321Z,36.20
2019-01-04T17:18:42.542Z,34.00
2019-01-04T17:21:08.915Z,37.73
2019-01-04T17:23:35.115Z,34.00
2019-01-04T17:26:01.338Z,36.83
2019-01-04T17:28:27.549Z,36.63
2019-01-04T17:30:54.030Z,37.17
2019-01-04T17:33:20.242Z,38.40
2019-01-04T17:35:46.662Z,35.47
2019-01-04T17:38:12.882Z,34.40
2019-01-04T17:40:40.257Z,34.30
2019-01-04T17:43:06.459Z,33.07
2019-01-04T17:45:33.734Z,33.30
2019-01-04T17:47:59.961Z,33.07
2019-01-04T17:50:26.390Z,33.70
2019-01-04T17:52:52.790Z,34.77
2019-01-04T17:55:19.402Z,33.37
2019-01-04T17:57:45.902Z,33.33
2019-01-04T18:00:13.268Z,31.97
2019-01-04T18:02:39.484Z,33.87
2019-01-04T18:05:05.714Z,33.57
2019-01-04T18:07:31.935Z,32.73
2019-01-04T18:09:58.171Z,32.97
2019-01-04T18:12:24.494Z,33.63
2019-01-04T18:14:50.751Z,33.07
2019-01-04T18:17:17.085Z,32.90
2019-01-04T18:19:43.327Z,33.87
2019-01-04T18:22:09.685Z,33.30
2019-01-04T18:24:36.122Z,54.20
2019-01-04T18:27:02.381Z,31.80
2019-01-04T18:29:28.588Z,34.07
2019-01-04T18:31:54.810Z,31.73
2019-01-04T18:34:21.039Z,32.90
2019-01-04T18:36:47.391Z,32.20
2019-01-04T18:39:13.617Z,33.07
2019-01-04T18:41:39.842Z,30.97
2019-01-04T18:44:06.070Z,31.00
2019-01-04T18:46:32.333Z,30.17
2019-01-04T18:48:58.891Z,31.90
2019-01-04T18:51:25.181Z,32.73
2019-01-04T18:53:51.548Z,32.10
2019-01-04T18:56:17.772Z,32.00
2019-01-04T18:58:44.157Z,28.40
2019-01-04T19:01:13.697Z,29.97
2019-01-04T19:03:38.502Z,29.23
2019-01-04T19:06:04.711Z,30.33
2019-01-04T19:08:30.926Z,30.57
2019-01-04T19:10:57.562Z,31.47
2019-01-04T19:13:26.844Z,29.03
2019-01-04T19:15:52.927Z,31.30
2019-01-04T19:18:19.150Z,28.63
2019-01-04T19:20:45.410Z,31.17
2019-01-04T19:23:11.863Z,31.20
2019-01-04T19:25:38.062Z,31.20
2019-01-04T19:28:04.291Z,31.00
2019-01-04T19:30:30.603Z,30.70
2019-01-04T19:32:56.831Z,32.50
2019-01-04T19:35:23.082Z,31.60
2019-01-04T19:37:49.415Z,32.13
2019-01-04T19:40:15.634Z,32.53
2019-01-04T19:42:41.840Z,33.50
2019-01-04T19:45:08.262Z,33.23
2019-01-04T19:47:34.463Z,34.93
2019-01-04T19:50:10.523Z,34.70
2019-01-04T19:52:36.892Z,35.80
2019-01-04T19:55:03.483Z,35.37
2019-01-04T19:57:29.699Z,35.00
2019-01-04T19:59:55.924Z,37.47
2019-01-04T20:02:22.121Z,66.53
2019-01-04T20:04:48.347Z,37.07
2019-01-04T20:07:32.999Z,36.23
2019-01-04T20:10:55.466Z,36.43
2019-01-04T20:13:46.054Z,37.83
2019-01-04T20:16:37.262Z,38.93
2019-01-04T20:19:23.751Z,38.80
2019-01-04T20:21:51.854Z,38.90
2019-01-04T20:24:38.298Z,37.33
2019-01-04T20:27:18.529Z,38.33
2019-01-04T20:29:49.263Z,39.50
2019-01-04T20:32:17.371Z,38.17
2019-01-04T20:34:57.361Z,39.20
2019-01-04T20:37:40.606Z,37.67
2019-01-04T20:40:08.738Z,39.20
2019-01-04T20:42:36.861Z,37.03
2019-01-04T20:45:05.787Z,38.13
2019-01-04T20:47:50.886Z,37.10
2019-01-04T20:50:19.015Z,36.90
2019-01-04T20:52:50.152Z,37.67
2019-01-04T20:55:27.639Z,35.70
2019-01-04T20:57:55.799Z,36.33
2019-01-04T21:00:29.889Z,35.40
2019-01-04T21:02:58.002Z,35.93
2019-01-04T21:05:26.134Z,34.77
2019-01-04T21:08:03.335Z,35.23
2019-01-04T21:10:34.206Z,36.10
2019-01-04T21:13:08.338Z,37.80
2019-01-04T21:15:45.340Z,36.00
2019-01-04T21:18:30.600Z,34.57
2019-01-04T21:21:15.472Z,35.00
2019-01-04T21:23:43.754Z,34.63
2019-01-04T21:26:11.857Z,35.57
2019-01-04T21:28:56.874Z,33.80
2019-01-04T21:31:41.650Z,35.20
2019-01-04T21:34:15.893Z,35.73
2019-01-04T21:37:00.971Z,33.00
2019-01-04T21:39:35.010Z,35.60
2019-01-04T21:42:05.890Z,35.73
2019-01-04T21:44:34.008Z,34.60
2019-01-04T21:47:14.205Z,35.00
2019-01-04T21:49:48.319Z,34.47
2019-01-04T21:52:16.522Z,34.50
2019-01-04T21:54:47.356Z,35.70
2019-01-04T21:57:32.130Z,35.13
2019-01-04T22:00:00.240Z,40.70
2019-01-04T22:02:31.593Z,38.53
2019-01-04T22:05:16.231Z,35.20
2019-01-04T22:07:44.351Z,33.20
2019-01-04T22:10:30.806Z,35.83
2019-01-04T22:13:01.958Z,34.67
2019-01-04T22:15:32.690Z,34.50
2019-01-04T22:18:18.885Z,35.93
2019-01-04T22:20:52.794Z,35.73
2019-01-04T22:23:36.094Z,35.17
2019-01-04T22:26:16.511Z,37.03
2019-01-04T22:28:56.693Z,35.53
2019-01-04T22:31:43.237Z,34.90
2019-01-04T22:34:23.490Z,35.57
2019-01-04T22:36:51.607Z,35.43
2019-01-04T22:39:32.155Z,35.63
2019-01-04T22:42:03.150Z,37.57
2019-01-04T22:44:34.026Z,37.33
2019-01-04T22:47:20.178Z,36.73
2019-01-04T22:50:00.358Z,37.40
2019-01-04T22:52:37.395Z,36.40
2019-01-04T22:55:11.363Z,34.97
2019-01-04T22:57:39.494Z,34.53
2019-01-04T23:00:26.042Z,34.33
2019-01-04T23:02:54.150Z,34.00
2019-01-04T23:05:34.390Z,40.30
2019-01-04T23:08:20.826Z,37.03
2019-01-04T23:11:05.638Z,33.03
2019-01-04T23:13:42.674Z,35.70
2019-01-04T23:16:16.946Z,34.33
2019-01-04T23:19:03.733Z,32.73
2019-01-04T23:22:07.431Z,33.07
2019-01-04T23:24:38.338Z,31.73
2019-01-04T23:27:15.214Z,32.60
2019-01-04T23:29:52.213Z,32.53
2019-01-04T23:32:26.259Z,32.87
2019-01-04T23:35:24.746Z,34.07
2019-01-04T23:38:09.563Z,34.83
2019-01-04T23:40:47.196Z,33.43
2019-01-04T23:43:33.914Z,34.40
2019-01-04T23:46:02.009Z,32.90
2019-01-04T23:48:30.274Z,33.10
2019-01-04T23:51:01.362Z,32.07
2019-01-04T23:53:32.293Z,33.90
2019-01-04T23:56:09.370Z,32.87
2019-01-04T23:58:37.594Z,32.93
